Pintail — WDF5177 — position and weather

sailwx.info

Track history (hours):
 
Tides and Currents Weather Stations Pressure Air Temp Water Temp Dewpoint Dewpoint Depression Visibility Wind Speed Wind Dir Waves Ship Positions

Pintail

Owner: Pintail Marine Services, Inc, Friday Harbor, WA. More information available from US FCC via Universal Licensing System and Coast Guard Vessel Documentation Center.

Last reported at 2017-Oct-18 22:52 UTC. Time now 2017-Oct-19 03:57 UTC.
Position N 48°36' W 122°44'.

Length 19 m.

Type: Towing. MMSI: 367460260.

Date/timePositionNaut miles runAvg speedWind from/ knotsBaromVisibWave heightAir tempDewpointWater temp
2017-Oct-18 22:52N 48°36' W 122°44'2 6.2
2017-Oct-18 22:30N 48°34' W 122°45'2 4.3
2017-Oct-18 21:58N 48°35' W 122°48'3 5.7
2017-Oct-18 21:29N 48°35' W 122°52'3 6.3
2017-Oct-18 21:00N 48°33' W 122°56'2 4.6
2017-Oct-18 20:30N 48°32' W 122°59'1 1.5
2017-Oct-18 20:00N 48°32' W 123°00'0 0.0
2017-Oct-18 19:27N 48°32' W 123°00'1 1.1
2017-Oct-18 18:59N 48°32' W 123°00'0 0.0
2017-Oct-18 18:27N 48°32' W 123°00'1 1.2
2017-Oct-18 18:00N 48°32' W 122°60'0 0.0
2017-Oct-18 17:30N 48°32' W 122°60'2 3.7
2017-Oct-18 17:00N 48°33' W 122°58'3 5.8
2017-Oct-18 16:30N 48°34' W 122°54'2 5.0
2017-Oct-18 16:00N 48°33' W 122°50'3 5.3
2017-Oct-18 15:30N 48°32' W 122°47'0 0.2
2017-Oct-18 12:52N 48°32' W 122°47'2 5.4
2017-Oct-18 12:30N 48°33' W 122°50'3 5.5
2017-Oct-18 12:00N 48°34' W 122°53'3 5.8
2017-Oct-18 11:30N 48°32' W 122°57'2 4.2
2017-Oct-18 10:59N 48°32' W 122°60'0 0.0
2017-Oct-18 10:26N 48°32' W 122°60'0 0.0
2017-Oct-18 09:59N 48°32' W 122°60'0 0.0
2017-Oct-18 09:29N 48°32' W 122°60'0 0.0
2017-Oct-18 08:59N 48°32' W 122°60'0 0.0
2017-Oct-18 08:29N 48°32' W 122°60'0 0.0
2017-Oct-18 07:59N 48°32' W 122°60'0 0.0
2017-Oct-18 07:29N 48°32' W 122°60'0 0.0
2017-Oct-18 06:56N 48°32' W 122°60'0 0.0
2017-Oct-18 06:29N 48°32' W 122°60'0 0.0
2017-Oct-18 05:59N 48°32' W 122°60'0 0.0
2017-Oct-18 05:29N 48°32' W 122°60'0 0.0
2017-Oct-18 04:56N 48°32' W 122°60'0 0.0
2017-Oct-18 04:29N 48°32' W 122°60'0 0.0
2017-Oct-18 03:59N 48°32' W 122°60'0 0.0
2017-Oct-18 03:28N 48°32' W 122°60'0 0.0
2017-Oct-18 02:58N 48°32' W 122°60'0 0.0
2017-Oct-18 02:28N 48°32' W 122°60'0 0.0
2017-Oct-18 01:58N 48°32' W 122°60'0 0.0
2017-Oct-18 01:28N 48°32' W 122°60'0 0.0
2017-Oct-18 00:58N 48°32' W 122°60'0 0.1
2017-Oct-18 00:30N 48°32' W 122°60'0 0.1
2017-Oct-18 00:00N 48°32' W 123°00'4 5.7
2017-Oct-17 23:23N 48°35' W 123°01'2 4.9
2017-Oct-17 22:54N 48°37' W 123°00'3 5.9
2017-Oct-17 22:25N 48°35' W 123°01'3 6.8
2017-Oct-17 22:00N 48°32' W 122°60'0 0.8
2017-Oct-17 21:30N 48°32' W 122°60'3 5.6
2017-Oct-17 21:00N 48°33' W 122°56'3 5.2
2017-Oct-17 20:30N 48°34' W 122°52'3 6.1
2017-Oct-17 20:00N 48°32' W 122°49'3 5.7
2017-Oct-17 19:25N 48°31' W 122°44'5 1.4
2017-Oct-17 16:00N 48°36' W 122°44'2 4.4
2017-Oct-17 15:30N 48°36' W 122°48'1 1.7
2017-Oct-17 14:57N 48°36' W 122°49'2 4.0
2017-Oct-17 14:30N 48°35' W 122°51'3 5.6
2017-Oct-17 14:01N 48°34' W 122°55'3 5.8
2017-Oct-17 13:28N 48°32' W 122°59'1 2.1
2017-Oct-17 13:00N 48°32' W 122°60'0 0.0
2017-Oct-17 12:30N 48°32' W 122°60'0 0.0
2017-Oct-17 12:00N 48°32' W 122°60'0 0.0
2017-Oct-17 11:30N 48°32' W 122°60'0 0.0
2017-Oct-17 11:00N 48°32' W 122°60'0 0.0
2017-Oct-17 10:30N 48°32' W 122°60'0 0.0
2017-Oct-17 10:00N 48°32' W 122°60'0 0.0
2017-Oct-17 09:30N 48°32' W 122°60'0 0.0
2017-Oct-17 09:00N 48°32' W 122°60'0 0.3
2017-Oct-17 08:30N 48°32' W 122°60'2 4.5
2017-Oct-17 08:00N 48°30' W 122°58'  
Track history (hours):
 
Tides and Currents Weather Stations Pressure Air Temp Water Temp Dewpoint Dewpoint Depression Visibility Wind Speed Wind Dir Waves Ship Positions

Pintail

Owner: Pintail Marine Services, Inc, Friday Harbor, WA. More information available from US FCC via Universal Licensing System and Coast Guard Vessel Documentation Center.

Last reported at 2017-Oct-18 22:52 UTC. Time now 2017-Oct-19 03:57 UTC.
Position N 48°36' W 122°44'.

Length 19 m.

Type: Towing. MMSI: 367460260.

Date/timePositionNaut miles runAvg speedWind from/ knotsBaromVisibWave heightAir tempDewpointWater temp
2017-Oct-18 22:52N 48°36' W 122°44'2 6.2
2017-Oct-18 22:30N 48°34' W 122°45'2 4.3
2017-Oct-18 21:58N 48°35' W 122°48'3 5.7
2017-Oct-18 21:29N 48°35' W 122°52'3 6.3
2017-Oct-18 21:00N 48°33' W 122°56'2 4.6
2017-Oct-18 20:30N 48°32' W 122°59'1 1.5
2017-Oct-18 20:00N 48°32' W 123°00'0 0.0
2017-Oct-18 19:27N 48°32' W 123°00'1 1.1
2017-Oct-18 18:59N 48°32' W 123°00'0 0.0
2017-Oct-18 18:27N 48°32' W 123°00'1 1.2
2017-Oct-18 18:00N 48°32' W 122°60'0 0.0
2017-Oct-18 17:30N 48°32' W 122°60'2 3.7
2017-Oct-18 17:00N 48°33' W 122°58'3 5.8
2017-Oct-18 16:30N 48°34' W 122°54'2 5.0
2017-Oct-18 16:00N 48°33' W 122°50'3 5.3
2017-Oct-18 15:30N 48°32' W 122°47'0 0.2
2017-Oct-18 12:52N 48°32' W 122°47'2 5.4
2017-Oct-18 12:30N 48°33' W 122°50'3 5.5
2017-Oct-18 12:00N 48°34' W 122°53'3 5.8
2017-Oct-18 11:30N 48°32' W 122°57'2 4.2
2017-Oct-18 10:59N 48°32' W 122°60'0 0.0
2017-Oct-18 10:26N 48°32' W 122°60'0 0.0
2017-Oct-18 09:59N 48°32' W 122°60'0 0.0
2017-Oct-18 09:29N 48°32' W 122°60'0 0.0
2017-Oct-18 08:59N 48°32' W 122°60'0 0.0
2017-Oct-18 08:29N 48°32' W 122°60'0 0.0
2017-Oct-18 07:59N 48°32' W 122°60'0 0.0
2017-Oct-18 07:29N 48°32' W 122°60'0 0.0
2017-Oct-18 06:56N 48°32' W 122°60'0 0.0
2017-Oct-18 06:29N 48°32' W 122°60'0 0.0
2017-Oct-18 05:59N 48°32' W 122°60'0 0.0
2017-Oct-18 05:29N 48°32' W 122°60'0 0.0
2017-Oct-18 04:56N 48°32' W 122°60'0 0.0
2017-Oct-18 04:29N 48°32' W 122°60'0 0.0
2017-Oct-18 03:59N 48°32' W 122°60'0 0.0
2017-Oct-18 03:28N 48°32' W 122°60'0 0.0
2017-Oct-18 02:58N 48°32' W 122°60'0 0.0
2017-Oct-18 02:28N 48°32' W 122°60'0 0.0
2017-Oct-18 01:58N 48°32' W 122°60'0 0.0
2017-Oct-18 01:28N 48°32' W 122°60'0 0.0
2017-Oct-18 00:58N 48°32' W 122°60'0 0.1
2017-Oct-18 00:30N 48°32' W 122°60'0 0.1
2017-Oct-18 00:00N 48°32' W 123°00'4 5.7
2017-Oct-17 23:23N 48°35' W 123°01'2 4.9
2017-Oct-17 22:54N 48°37' W 123°00'3 5.9
2017-Oct-17 22:25N 48°35' W 123°01'3 6.8
2017-Oct-17 22:00N 48°32' W 122°60'0 0.8
2017-Oct-17 21:30N 48°32' W 122°60'3 5.6
2017-Oct-17 21:00N 48°33' W 122°56'3 5.2
2017-Oct-17 20:30N 48°34' W 122°52'3 6.1
2017-Oct-17 20:00N 48°32' W 122°49'3 5.7
2017-Oct-17 19:25N 48°31' W 122°44'5 1.4
2017-Oct-17 16:00N 48°36' W 122°44'2 4.4
2017-Oct-17 15:30N 48°36' W 122°48'1 1.7
2017-Oct-17 14:57N 48°36' W 122°49'2 4.0
2017-Oct-17 14:30N 48°35' W 122°51'3 5.6
2017-Oct-17 14:01N 48°34' W 122°55'3 5.8
2017-Oct-17 13:28N 48°32' W 122°59'1 2.1
2017-Oct-17 13:00N 48°32' W 122°60'0 0.0
2017-Oct-17 12:30N 48°32' W 122°60'0 0.0
2017-Oct-17 12:00N 48°32' W 122°60'0 0.0
2017-Oct-17 11:30N 48°32' W 122°60'0 0.0
2017-Oct-17 11:00N 48°32' W 122°60'0 0.0
2017-Oct-17 10:30N 48°32' W 122°60'0 0.0
2017-Oct-17 10:00N 48°32' W 122°60'0 0.0
2017-Oct-17 09:30N 48°32' W 122°60'0 0.0
2017-Oct-17 09:00N 48°32' W 122°60'0 0.3
2017-Oct-17 08:30N 48°32' W 122°60'2 4.5
2017-Oct-17 08:00N 48°30' W 122°58'  

Dump ship's entire track history